Terminal Aerodrome Forecast
Issued by NWS Grand Forks, ND

Home | Current Version | Previous Version | Text Only | Print | Product List | Glossary Off
Versions: 1 2 3 4 5 6 7 8 9 10 11 12 13 14

000
FTUS43 KFGF 291026 AAA
TAFGFK
TAF AMD
KGFK 291026Z 2910/3006 30006KT P6SM BKN017
     FM291230 32010KT P6SM SCT020
     FM291400 34012KT P6SM SCT150=

USA.gov is the U.S. government's official web portal to all federal, state and local government web resources and services.